CheckWX is a tool to help pilots better visualize weather data.  It is not intended as a substitute for an official pre-flight weather briefing.

01:02:44 UTC

KSOP METAR
Moore County Airport
Pinehurst/Southern Pines, North Carolina, USA
Current

1 hour ago

KSOP 192356Z AUTO 17004KT 10SM CLR 26/22 A3006 RMK AO2 SLP188 T02610217 10300 20261 55000
Observed
Aug-19 @ 23:56 UTC
Wind
  • 170° at 4 KTS
Visibility
10 SM
Flight Rules
VFR
Cloud Levels
  • Clear skies
Temperature
26°C / 79°F
Dewpoint
22°C / 72°F
Humidity
79%
Altimeter
30.06" Hg
Pressure
1017.92 hPa
Previous

2 hours ago

KSOP 192256Z AUTO 32005KT 10SM CLR 27/22 A3006 RMK AO2 LTG DSNT SW SLP187 T02720217
Observed
Aug-19 @ 22:56 UTC
Wind
  • 320° at 5 KTS
Visibility
10 SM
Flight Rules
VFR
Cloud Levels
  • Clear skies
Temperature
27°C / 81°F
Dewpoint
22°C / 72°F
Heat Index
29°C / 85°F
Humidity
74%
Altimeter
30.06" Hg
Pressure
1017.92 hPa
Previous

3 hours ago

KSOP 192156Z AUTO 00000KT 10SM CLR 28/21 A3005 RMK AO2 LTG DSNT N AND NW SLP184 T02780211
Observed
Aug-19 @ 21:56 UTC
Visibility
10 SM
Flight Rules
VFR
Cloud Levels
  • Clear skies
Temperature
28°C / 82°F
Dewpoint
21°C / 70°F
Heat Index
30°C / 86°F
Humidity
66%
Altimeter
30.05" Hg
Pressure
1017.62 hPa